Latest Coastal Weather Observations for Cape Nelson

IDV60701

Issued at 2:01 pm EDT Thursday 2 April 2015 (issued every 10 minutes, with the page automatically refreshed every 10 minutes)

About coastal observations | Map of coastal stations | Coastal observations for VIC | Marine services | Other Formats
Station Details ID: 090184 Name: CAPE NELSON LIGHTHOUSE Lat: -38.43 Lon: 141.54 Height: 45.4 m
Data from the previous 72 hours. | See also: Recent months at Cape Nelson
Date/Time
EDT
Temp

°C
Wind Pressure Rain
since 9am
mm
Weather Cloud Vis
km
Sea
Height
m
Swell
Dir
 
Speed
knots
Gust
knots
hPa Trend Height
m
Period
s
Dir
02/02:00pm 14.0 SSE 17 24 1026.8 - 0.0 - - - - - - -
02/01:30pm 15.1 SSE 16 23 1027.0 - 0.0 - - - - - - -
02/01:00pm 14.6 SSE 18 25 1027.2 - 0.0 - - - - - - -
02/12:30pm 15.1 SSE 16 23 1027.1 - 0.0 - - - - - - -
02/12:00pm 14.7 SSE 18 25 1026.9 - 0.0 - - - - - - -
02/11:30am 14.5 SSE 18 25 1026.6 - 0.0 - - - - - - -
02/11:00am 14.3 SSE 18 24 1026.4 - 0.0 - - - - - - -
02/10:30am 14.0 SSE 18 24 1026.2 - 0.0 - - - - - - -
02/10:00am 14.1 SSE 19 24 1025.7 - 0.0 - - - - - - -
02/09:30am 13.4 S 19 25 1025.3 - 0.0 - - - - - - -
02/09:00am 13.5 S 19 24 1024.9 - 0.4 - - - - - - -
02/08:30am 13.0 S 19 25 1024.4 - 0.4 - - - - - - -
02/08:00am 13.0 S 18 25 1024.0 - 0.4 - - - - - - -
02/07:30am 13.1 S 18 24 1023.5 - 0.4 - - - - - - -
02/07:00am 12.8 S 19 27 1023.1 - 0.4 - - - - - - -
02/06:30am 13.1 S 19 25 1022.5 - 0.4 - - - - - - -
02/06:17am 13.1 S 19 29 1022.4 - 0.4 - - - - - - -
02/06:00am 13.0 S 19 28 1022.1 - 0.4 - - - - - - -
02/05:30am 13.3 S 22 29 1021.8 - 0.4 - - - - - - -
02/05:00am 13.2 S 21 30 1021.4 - 0.4 - - - - - - -
02/04:42am 13.2 S 21 31 1021.2 - 0.4 - - - - - - -
02/04:30am 13.2 S 22 29 1021.1 - 0.4 - - - - - - -
02/04:12am 13.4 S 23 33 1021.1 - 0.4 - - - - - - -
02/04:00am 13.2 S 23 31 1021.0 - 0.4 - - - - - - -
02/03:30am 13.3 SSW 24 31 1020.9 - 0.4 - - - - - - -
02/03:00am 13.4 S 22 30 1020.7 - 0.4 - - - - - - -
02/02:55am 13.4 S 22 32 1020.6 - 0.4 - - - - - - -
02/02:30am 13.6 S 23 31 1020.5 - 0.4 - - - - - - -
02/02:00am 13.7 S 24 30 1020.2 - 0.4 - - - - - - -
02/01:33am 13.7 S 20 31 1019.9 - 0.4 - - - - - - -
02/01:30am 13.9 S 20 29 1019.7 - 0.4 - - - - - - -
02/01:00am 13.9 S 17 28 1019.5 - 0.4 - - - - - - -
02/12:38am 13.8 S 19 29 1019.3 - 0.4 - - - - - - -
02/12:30am 13.6 S 21 30 1019.4 - 0.4 - - - - - - -
02/12:28am 13.5 S 20 30 1019.4 - 0.4 - - - - - - -
02/12:05am 14.2 SSE 15 27 1018.9 - 0.4 - - - - - - -
02/12:00am 14.1 SSE 15 23 1018.6 - 0.4 - - - - - - -
 
Date/Time
EDT
Temp

°C
Wind Pressure Rain
since 9am
mm
Weather Cloud Vis
km
Sea
Height
m
Swell
Dir
 
Speed
knots
Gust
knots
hPa Trend Height
m
Period
s
Dir
01/11:35pm 14.6 SSE 14 26 1018.2 - 0.4 - - - - - - -
01/11:30pm 14.4 SE 13 26 1017.9 - 0.4 - - - - - - -
01/11:00pm 14.7 SSE 14 27 1017.4 - 0.4 - - - - - - -
01/10:30pm 14.7 SSE 15 27 1016.7 - 0.4 - - - - - - -
01/10:13pm 14.6 SSE 15 29 1016.3 - 0.4 - - - - - - -
01/10:00pm 14.7 SE 13 25 1015.9 - 0.4 - - - - - - -
01/09:30pm 15.0 E 14 25 1015.1 - 0.4 - - - - - - -
01/09:00pm 15.6 NNE 11 24 1014.1 - 0.2 - - - - - - -
01/08:32pm 16.8 W 19 29 1013.5 - 0.2 - - - - - - -
01/08:30pm 16.9 W 20 29 1013.6 - 0.2 - - - - - - -
01/08:00pm 17.1 WNW 17 24 1012.8 - 0.2 - - - - - - -
01/07:30pm 17.0 WNW 17 23 1012.5 - 0.2 - - - - - - -
01/07:00pm 17.0 NW 16 25 1012.1 - 0.2 - - - - - - -
01/06:30pm 17.3 WNW 13 18 1011.7 - 0.2 - - - - - - -
01/06:00pm 17.6 WNW 13 19 1011.3 - 0.2 Recent precip. - - - - - -
01/05:30pm 18.2 WNW 14 20 1011.0 - 0.0 - - - - - - -
01/05:00pm 19.2 WNW 18 25 1010.6 - 0.0 - - - - - - -
01/04:42pm 19.5 WNW 16 26 1010.2 - 0.0 - - - - - - -
01/04:30pm 20.2 WNW 14 19 1010.4 - 0.0 - - - - - - -
01/04:00pm 21.4 WNW 17 28 1010.3 - 0.0 - - - - - - -
01/03:57pm 21.8 WNW 18 28 1010.3 - 0.0 - - - - - - -
01/03:54pm 22.2 WNW 19 26 1010.2 - 0.0 - - - - - - -
01/03:30pm 27.5 NW 18 32 1009.6 - 0.0 - - - - - - -
01/03:00pm 28.3 NNW 17 28 1009.7 - 0.0 - - - - - - -
01/02:32pm 28.0 NNW 17 27 1010.1 - 0.0 - - - - - - -
01/02:30pm 28.0 NNW 17 24 1010.1 - 0.0 - - - - - - -
01/02:00pm 27.8 NNW 19 29 1010.6 - 0.0 - - - - - - -
01/01:30pm 26.9 NNW 17 27 1011.1 - 0.0 - - - - - - -
01/01:13pm 26.9 NNW 18 31 1011.4 - 0.0 - - - - - - -
01/01:00pm 26.6 NNW 19 27 1011.5 - 0.0 - - - - - - -
01/12:46pm 26.2 NNW 16 26 1011.7 - 0.0 - - - - - - -
01/12:30pm 25.5 N 17 25 1011.9 - 0.0 - - - - - - -
01/12:00pm 24.6 N 17 27 1012.1 - 0.0 - - - - - - -
01/11:59am 24.6 N 17 27 1012.1 - 0.0 - - - - - - -
01/11:30am 24.1 N 16 24 1012.5 - 0.0 - - - - - - -
01/11:11am 23.0 N 16 26 1012.6 - 0.0 - - - - - - -
01/11:00am 22.7 N 15 23 1012.8 - 0.0 - - - - - - -
01/10:30am 22.0 N 15 23 1013.4 - 0.0 - - - - - - -
01/10:00am 21.2 N 16 25 1013.7 - 0.0 - - - - - - -
01/09:58am 21.2 N 15 25 1013.8 - 0.0 - - - - - - -
01/09:30am 21.0 N 16 23 1013.7 - 0.0 - - - - - - -
01/09:00am 20.4 N 14 22 1014.0 - 0.0 - - - - - - -
01/08:43am 20.3 N 15 25 1014.1 - 0.0 - - - - - - -
01/08:30am 20.0 N 15 21 1014.1 - 0.0 - - - - - - -
01/08:00am 19.5 N 15 22 1014.4 - 0.0 - - - - - - -
01/07:34am 19.9 N 16 26 1014.4 - 0.0 - - - - - - -
01/07:30am 20.0 N 15 23 1014.5 - 0.0 - - - - - - -
01/07:00am 19.4 N 15 22 1014.6 - 0.0 - - - - - - -
01/06:30am 19.5 N 15 21 1014.8 - 0.0 - - - - - - -
01/06:00am 19.7 N 14 21 1015.1 - 0.0 - - - - - - -
01/05:30am 19.4 N 14 20 1015.3 - 0.0 - - - - - - -
01/05:00am 17.3 N 11 16 1015.6 - 0.0 - - - - - - -
01/04:30am 15.8 N 11 13 1016.0 - 0.0 - - - - - - -
01/04:00am 15.0 NNE 8 10 1016.4 - 0.0 - - - - - - -
01/03:30am 15.1 NNE 10 13 1017.0 - 0.0 - - - - - - -
01/03:00am 15.4 NNE 9 14 1017.6 - 0.0 - - - - - - -
01/02:30am 15.5 NE 11 14 1018.1 - 0.0 - - - - - - -
01/02:00am 15.4 NE 9 11 1018.4 - 0.0 - - - - - - -
01/01:30am 15.1 NE 7 9 1019.0 - 0.0 - - - - - - -
01/01:00am 15.3 NE 6 7 1019.5 - 0.0 - - - - - - -
01/12:30am 15.4 NNE 5 7 1020.1 - 0.0 - - - - - - -
01/12:00am 15.7 NE 10 11 1020.2 - 0.0 - - - - - - -
 
Date/Time
EDT
Temp

°C
Wind Pressure Rain
since 9am
mm
Weather Cloud Vis
km
Sea
Height
m
Swell
Dir
 
Speed
knots
Gust
knots
hPa Trend Height
m
Period
s
Dir
31/11:30pm 15.7 NE 9 11 1020.7 - 0.0 - - - - - - -
31/11:00pm 15.5 NE 8 11 1020.8 - 0.0 - - - - - - -
31/10:30pm 15.6 NE 9 11 1021.0 - 0.0 - - - - - - -
31/10:00pm 16.0 NE 8 11 1020.9 - 0.0 - - - - - - -
31/09:30pm 16.2 ENE 7 9 1021.1 - 0.0 - - - - - - -
31/09:00pm 16.4 ENE 6 8 1021.2 - 0.0 - - - - - - -
31/08:30pm 16.4 ENE 6 8 1021.5 - 0.0 - - - - - - -
31/08:00pm 16.3 ENE 6 7 1021.4 - 0.0 - - - - - - -
31/07:30pm 16.7 E 7 9 1021.0 - 0.0 - - - - - - -
31/07:00pm 17.1 ESE 4 6 1021.2 - 0.0 - - - - - - -
31/06:30pm 17.8 E 5 7 1021.1 - 0.0 - - - - - - -
31/06:00pm 18.4 ESE 5 5 1021.4 - 0.0 - - - - - - -
31/05:30pm 19.1 ESE 5 6 1021.2 - 0.0 - - - - - - -
31/05:00pm 19.4 ESE 6 7 1021.4 - 0.0 - - - - - - -
31/04:30pm 19.2 ESE 5 6 1021.7 - 0.0 - - - - - - -
31/04:00pm 19.2 ESE 6 7 1021.9 - 0.0 - - - - - - -
31/03:30pm 19.6 ESE 6 7 1022.2 - 0.0 - - - - - - -
31/03:00pm 19.2 ESE 6 7 1022.5 - 0.0 - - - - - - -
31/02:30pm 19.2 ESE 6 7 1023.1 - 0.0 - - - - - - -
31/02:00pm 18.9 ESE 6 7 1023.4 - 0.0 - - - - - - -
31/01:30pm 18.7 ESE 6 8 1023.7 - 0.0 - - - - - - -
31/01:00pm 18.7 ESE 6 8 1024.1 - 0.0 - - - - - - -
31/12:30pm 19.0 E 6 8 1024.4 - 0.0 - - - - - - -
31/12:00pm 18.6 E 8 11 1024.7 - 0.0 - - - - - - -
31/11:30am 18.5 ENE 7 11 1025.3 - 0.0 - - - - - - -
31/11:00am 18.0 NE 10 13 1025.5 - 0.0 - - - - - - -
31/10:30am 17.2 NE 9 12 1025.7 - 0.0 - - - - - - -
31/10:00am 16.5 NNE 9 11 1025.9 - 0.0 - - - - - - -
31/09:30am 15.6 NE 9 12 1025.5 - 0.0 - - - - - - -
31/09:00am 14.7 NNE 9 12 1025.3 - 0.0 - - - - - - -
31/08:30am 13.1 NNE 7 8 1025.7 - 0.0 - - - - - - -
31/08:00am 12.0 NNE 6 8 1025.6 - 0.0 - - - - - - -
31/07:30am 12.2 N 6 7 1025.6 - 0.0 - - - - - - -
31/07:00am 12.5 N 5 6 1025.3 - 0.0 - - - - - - -
31/06:30am 13.1 N 5 6 1025.1 - 0.0 - - - - - - -
31/06:00am 13.6 NNE 5 6 1025.0 - 0.0 - - - - - - -
31/05:30am 14.1 NNE 5 7 1025.0 - 0.0 - - - - - - -
31/05:00am 14.3 ENE 5 7 1024.9 - 0.0 - - - - - - -
31/04:30am 14.5 E 6 8 1024.8 - 0.0 - - - - - - -
31/04:00am 14.7 E 6 7 1025.1 - 0.0 - - - - - - -
31/03:30am 14.7 E 4 6 1025.5 - 0.0 - - - - - - -
31/03:00am 15.0 E 5 7 1025.6 - 0.0 - - - - - - -
31/02:30am 15.1 SE 4 5 1025.8 - 0.0 - - - - - - -
31/02:00am 15.3 SE 4 5 1025.9 - 0.0 - - - - - - -
31/01:30am 15.5 SSE 4 5 1026.0 - 0.0 - - - - - - -
31/01:00am 15.5 SSE 5 7 1026.0 - 0.0 - - - - - - -
31/12:30am 15.1 S 4 6 1026.1 - 0.0 - - - - - - -
31/12:00am 14.3 CALM 0 0 1026.2 - 0.0 - - - - - - -
 
Date/Time
EDT
Temp

°C
Wind Pressure Rain
since 9am
mm
Weather Cloud Vis
km
Sea
Height
m
Swell
Dir
 
Speed
knots
Gust
knots
hPa Trend Height
m
Period
s
Dir
30/11:30pm 15.3 ENE 3 4 1026.2 - 0.0 - - - - - - -
30/11:00pm 15.7 N 3 6 1026.2 - 0.0 - - - - - - -
30/10:30pm 16.0 NW 5 7 1026.0 - 0.0 - - - - - - -
30/10:00pm 16.1 W 4 6 1026.0 - 0.0 - - - - - - -
30/09:30pm 16.3 W 6 8 1025.9 - 0.0 - - - - - - -
30/09:00pm 16.3 W 5 8 1025.8 - 0.0 - - - - - - -
30/08:30pm 16.4 W 6 10 1025.8 - 0.0 - - - - - - -
30/08:00pm 16.4 W 5 7 1025.5 - 0.0 - - - - - - -
30/07:30pm 16.6 W 6 10 1025.3 - 0.0 - - - - - - -
30/07:00pm 17.0 W 6 9 1025.2 - 0.0 - - - - - - -
30/06:30pm 17.5 WNW 7 11 1024.9 - 0.0 - - - - - - -
30/06:00pm 17.6 W 8 12 1024.7 - 0.0 - - - - - - -
30/05:30pm 18.2 W 8 12 1024.6 - 0.0 - - - - - - -
30/05:00pm 18.3 WNW 10 13 1024.3 - 0.0 - - - - - - -
30/04:30pm 19.2 WNW 9 11 1024.4 - 0.0 - - - - - - -
30/04:00pm 18.5 WNW 10 13 1024.3 - 0.0 - - - - - - -
30/03:30pm 19.7 WNW 9 12 1024.4 - 0.0 - - - - - - -
30/03:00pm 20.0 WNW 9 12 1024.5 - 0.0 - - - - - - -
30/02:30pm 19.0 WNW 10 14 1024.6 - 0.0 - - - - - - -

Other Formats:

Comma delimited format used in spreadsheet applications
http://www.bom.gov.au/fwo/IDV60701/IDV60701.94826.axf

JavaScript Object Notation format (JSON) in row-major order
http://www.bom.gov.au/fwo/IDV60701/IDV60701.94826.json